Moreno Valley, CA (92553)

3:52 PM PDT on October 25, 2014 (GMT -0700)
Moreno Valley | Change Station
CLOSE
Current Station
Personal Weather Station
Location: Moreno Valley, CA
Elevation: 1572 ft
Nearby Weather Stations

Elev 1572 ft 33.91 °N, 117.24 °W | Updated 2 seconds ago

Partly Cloudy
Partly Cloudy
80.8 °F
Feels Like 80 °F
N
10.0
Wind Variable Wind from WNW
Gusts 14.0 mph

Today
High -- | Low -- °F
--% Chance of Precip.
Yesterday
High -- | Low -- °F
Precip. -- in
7:02 AM 6:03 PM
Waxing Crescent, 4% visible
Pressure 29.99 in
Visibility 10.0 miles
Clouds Few 9000 ft
Heat Index 80 °F
Dew Point 47 °F
Humidity 31%
Rainfall 0.00 in
Snow Depth Not available.
UV 3 out of 12
Pollen 3.80 out of 12
Ozone Good
PM2.5 Good
Flu Activity Sporadic
METAR KRIV 252158Z AUTO 30011KT 10SM FEW090 28/07 A3002 RMK AO2 SLP155 T02840068

More Conditions Fewer Conditions

Pressure 29.99 in
Visibility 10.0 miles
Clouds Few 9000 ft
Heat Index 80 °F
Dew Point 47 °F
Humidity 31%
Rainfall 0.00 in
Snow Depth Not available.
UV 3 out of 12
Pollen 3.80 out of 12
Ozone Good
PM2.5 Good
Flu Activity Sporadic
METAR KRIV 252158Z AUTO 30011KT 10SM FEW090 28/07 A3002 RMK AO2 SLP155 T02840068

More Conditions Fewer Conditions

10-Day Weather Forecast

Almanac

Astronomy

Oct. 25, 2014 Rise Set
Actual Time 7:02 AM PDT 6:03 PM PDT
Civil Twilight 6:36 AM PDT 6:28 PM PDT
Nautical Twilight 6:07 AM PDT 6:57 PM PDT
Astronomical Twilight 5:38 AM PDT 7:27 PM PDT
Moon 8:42 AM PDT 7:33 PM PDT
Length of Visible Light 11h 52m
Length of Day
11h 00m
Tomorrow will be 1m 55s shorter.
Waxing Crescent, 4% of the Moon is Illuminated
Today
Waxing Crescent
Oct 30
First Quarter
Nov 6
Full
Nov 14
Last Quarter
Nov 22
New

Today's Extremes

State Highs State Lows

Community

WunderPhotos

Upload Photos

1,765,016 photos uploaded!

Nearby

Air Quality

  Air Quality AQ Index Pollutant
Yesterday Good
PM10
Current Good
PM2.5
Current Good
OZONE
Sunday Good
PM10
Sunday Moderate
OZONE
Sunday Good
CO
Sunday Good
NO2

Snow Depth

Station Depth Elevation
Leavitt Lake 0 in 9400 ft
Leavitt Meadows 1 in 7200 ft
Summit Meadow 0 in 9122 ft
Monitor Pass 0 in 8350 ft
Burnside Lake 0 in 8139 ft

Earthquake Activity

City Distance Mag. Time & Date
Barstow, California 76 miles 2.9 2:48 PM PDT
2014-10-25
Running Springs, California 28 miles 3.1 4:07 AM PDT
2014-10-25
Brea, California 38 miles 2.9 3:35 PM PDT
2014-10-23
Brea, California 37 miles 2.8 3:34 PM PDT
2014-10-23
Minimum magnitude displayed is 2.5.

Coastal Water Temperatures

Place Temperature
No Stations Reporting

Nearby Weather Stations